createdAt,value
2018-09-30T00:01:23.250Z,95842.88
2018-09-30T00:03:52.918Z,95838.17
2018-09-30T00:06:25.813Z,95836.41
2018-09-30T00:09:01.261Z,95829.08
2018-09-30T00:11:38.481Z,95824.44
2018-09-30T00:14:31.842Z,95828.37
2018-09-30T00:17:24.442Z,95831.42
2018-09-30T00:23:21.643Z,95825.30
2018-09-30T00:26:09.907Z,95822.09
2018-09-30T00:28:38.671Z,95826.77
2018-09-30T00:31:13.917Z,95823.76
2018-09-30T00:33:56.332Z,95821.74
2018-09-30T00:36:31.915Z,95823.05
2018-09-30T03:01:37.784Z,95754.33
2018-09-30T03:04:06.247Z,95755.25
2018-09-30T03:06:39.904Z,95751.61
2018-09-30T03:09:17.138Z,95752.66
2018-09-30T03:11:45.712Z,95752.03
2018-09-30T03:14:15.331Z,95742.48
2018-09-30T03:26:05.351Z,95731.09
2018-09-30T03:28:33.799Z,95728.73
2018-09-30T03:31:02.548Z,95729.41
2018-09-30T03:33:31.021Z,95724.19
2018-09-30T03:35:59.502Z,95727.70
2018-09-30T03:44:23.251Z,95724.27
2018-09-30T03:46:51.764Z,95720.00
2018-09-30T03:49:20.354Z,95717.73
2018-09-30T04:07:15.936Z,95705.77
2018-09-30T04:09:44.989Z,95705.27
2018-09-30T04:12:13.432Z,95701.45
2018-09-30T04:14:42.040Z,95704.77
2018-09-30T04:37:27.060Z,95697.33
2018-09-30T04:39:55.623Z,95689.31
2018-09-30T04:42:24.117Z,95681.86
2018-09-30T04:59:24.481Z,95686.17
2018-09-30T05:04:49.006Z,95685.64
2018-09-30T05:07:17.478Z,95685.20
2018-09-30T05:09:45.922Z,95686.87
2018-09-30T05:12:14.390Z,95680.77
2018-09-30T05:14:42.915Z,95678.34
2018-09-30T05:17:11.405Z,95674.67
2018-09-30T05:19:39.967Z,95679.77
2018-09-30T05:22:08.526Z,95672.37
2018-09-30T05:24:36.987Z,95671.32
2018-09-30T05:27:05.979Z,95674.30
2018-09-30T05:29:34.455Z,95675.92
2018-09-30T05:32:03.726Z,95672.66
2018-09-30T05:34:39.132Z,95673.00
2018-09-30T05:37:07.722Z,95676.42
2018-09-30T05:39:36.223Z,95679.31
2018-09-30T05:42:04.730Z,95674.47
2018-09-30T05:44:33.191Z,95676.55
2018-09-30T05:47:01.993Z,95666.43
2018-09-30T05:49:30.466Z,95672.24
2018-09-30T05:51:59.071Z,95668.59
2018-09-30T05:54:27.493Z,95671.87
2018-09-30T05:56:55.956Z,95668.72
2018-09-30T05:59:24.386Z,95672.79
2018-09-30T06:01:52.889Z,95671.45
2018-09-30T06:04:21.314Z,95672.36
2018-09-30T06:06:49.721Z,95669.19
2018-09-30T06:09:18.240Z,95676.17
2018-09-30T06:11:47.323Z,95674.88
2018-09-30T06:14:16.356Z,95675.01
2018-09-30T06:16:44.810Z,95674.83
2018-09-30T06:19:13.313Z,95671.03
2018-09-30T06:21:42.015Z,95675.75
2018-09-30T06:24:13.200Z,95662.33
2018-09-30T06:26:41.758Z,95667.77
2018-09-30T06:29:10.194Z,95670.78
2018-09-30T06:31:38.644Z,95664.45
2018-09-30T06:34:08.527Z,95669.98
2018-09-30T06:36:36.975Z,95659.94
2018-09-30T06:39:08.193Z,95656.05
2018-09-30T06:41:36.633Z,95656.97
2018-09-30T06:44:05.338Z,95657.44
2018-09-30T06:46:33.766Z,95663.80
2018-09-30T06:49:02.933Z,95661.11
2018-09-30T06:51:36.604Z,95660.10
2018-09-30T06:54:05.214Z,95660.47
2018-09-30T06:56:35.317Z,95660.38
2018-09-30T06:59:04.633Z,95660.78
2018-09-30T07:01:33.065Z,95664.55
2018-09-30T07:04:04.049Z,95658.20
2018-09-30T07:06:33.671Z,95659.73
2018-09-30T07:09:02.292Z,95660.44
2018-09-30T07:11:33.514Z,95657.51
2018-09-30T07:14:06.823Z,95656.57
2018-09-30T07:16:42.491Z,95647.47
2018-09-30T07:19:10.871Z,95643.09
2018-09-30T07:21:39.309Z,95650.05
2018-09-30T07:24:07.849Z,95649.00
2018-09-30T07:26:42.206Z,95646.61
2018-09-30T07:29:10.613Z,95638.21
2018-09-30T07:31:39.065Z,95641.48
2018-09-30T07:36:45.227Z,95643.05
2018-09-30T07:39:13.634Z,95645.27
2018-09-30T07:41:42.074Z,95642.63
2018-09-30T07:44:10.493Z,95646.24
2018-09-30T07:46:38.992Z,95647.72
2018-09-30T07:49:07.401Z,95643.98
2018-09-30T07:51:35.838Z,95646.41
2018-09-30T07:54:04.272Z,95641.31
2018-09-30T07:56:32.719Z,95643.28
2018-09-30T07:59:02.022Z,95636.20
2018-09-30T08:01:31.366Z,95632.95
2018-09-30T08:04:04.852Z,95628.91
2018-09-30T08:06:35.213Z,95631.80
2018-09-30T08:09:04.605Z,95629.19
2018-09-30T08:11:33.222Z,95627.95
2018-09-30T08:14:02.121Z,95623.00
2018-09-30T08:16:30.616Z,95626.17
2018-09-30T08:18:59.057Z,95629.47
2018-09-30T08:21:27.520Z,95633.11
2018-09-30T08:23:56.050Z,95635.60
2018-09-30T08:26:24.476Z,95633.89
2018-09-30T08:28:52.893Z,95633.59
2018-09-30T08:31:21.380Z,95630.50
2018-09-30T08:33:49.886Z,95632.58
2018-09-30T08:36:18.295Z,95639.44
2018-09-30T08:38:46.742Z,95632.14
2018-09-30T08:41:15.160Z,95633.52
2018-09-30T08:43:44.295Z,95633.72
2018-09-30T08:46:12.793Z,95636.09
2018-09-30T08:48:41.461Z,95634.05
2018-09-30T08:51:09.915Z,95630.02
2018-09-30T08:53:38.765Z,95632.77
2018-09-30T08:56:07.974Z,95623.33
2018-09-30T08:58:36.511Z,95630.50
2018-09-30T09:01:04.950Z,95625.75
2018-09-30T09:03:33.504Z,95628.08
2018-09-30T09:06:01.933Z,95624.55
2018-09-30T09:08:30.545Z,95626.48
2018-09-30T09:10:59.171Z,95627.13
2018-09-30T09:13:28.062Z,95623.04
2018-09-30T09:15:56.790Z,95624.00
2018-09-30T09:18:25.237Z,95618.67
2018-09-30T09:20:53.805Z,95615.47
2018-09-30T09:23:22.464Z,95615.03
2018-09-30T09:25:51.011Z,95607.15
2018-09-30T09:28:19.861Z,95601.36
2018-09-30T09:30:48.459Z,95603.37
2018-09-30T09:33:17.051Z,95599.30
2018-09-30T09:35:45.563Z,95596.66
2018-09-30T09:38:13.982Z,95600.09
2018-09-30T09:40:48.674Z,95597.70
2018-09-30T09:43:18.250Z,95596.70
2018-09-30T09:45:46.806Z,95585.89
2018-09-30T09:48:15.437Z,95586.94
2018-09-30T09:50:46.819Z,95587.18
2018-09-30T09:53:15.442Z,95582.04
2018-09-30T09:55:43.981Z,95583.19
2018-09-30T09:58:12.530Z,95583.23
2018-09-30T10:00:44.394Z,95573.87
2018-09-30T10:03:13.841Z,95568.77
2018-09-30T10:05:43.429Z,95572.53
2018-09-30T10:08:12.182Z,95567.39
2018-09-30T10:10:40.734Z,95566.95
2018-09-30T10:13:09.665Z,95567.91
2018-09-30T10:15:38.370Z,95562.59
2018-09-30T10:18:06.874Z,95558.96
2018-09-30T10:20:35.366Z,95557.33
2018-09-30T10:23:05.815Z,95556.04
2018-09-30T10:25:34.552Z,95546.69
2018-09-30T10:28:05.298Z,95548.55
2018-09-30T10:30:33.908Z,95549.13
2018-09-30T10:33:03.642Z,95553.06
2018-09-30T10:35:32.105Z,95543.55
2018-09-30T10:38:00.642Z,95536.04
2018-09-30T10:40:29.197Z,95532.36
2018-09-30T10:42:57.788Z,95524.84
2018-09-30T10:45:26.298Z,95523.91
2018-09-30T10:47:54.877Z,95519.37
2018-09-30T10:50:23.345Z,95511.01
2018-09-30T10:52:52.665Z,95508.38
2018-09-30T10:55:21.263Z,95502.30
2018-09-30T10:57:52.566Z,95500.02
2018-09-30T11:00:21.022Z,95490.34
2018-09-30T11:02:49.783Z,95494.77
2018-09-30T11:05:18.309Z,95492.00
2018-09-30T11:07:46.885Z,95487.23
2018-09-30T11:10:17.585Z,95481.15
2018-09-30T11:12:48.933Z,95477.87
2018-09-30T11:15:17.409Z,95474.27
2018-09-30T11:17:45.837Z,95467.70
2018-09-30T11:20:16.509Z,95464.09
2018-09-30T11:22:46.477Z,95468.35
2018-09-30T11:25:16.664Z,95461.31
2018-09-30T11:27:45.710Z,95460.98
2018-09-30T11:30:14.938Z,95459.67
2018-09-30T11:32:43.346Z,95455.91
2018-09-30T11:35:12.006Z,95454.27
2018-09-30T11:37:43.801Z,95449.47
2018-09-30T11:40:20.096Z,95443.73
2018-09-30T11:42:50.855Z,95443.23
2018-09-30T11:45:19.490Z,95446.53
2018-09-30T11:47:49.311Z,95436.53
2018-09-30T11:50:19.958Z,95437.84
2018-09-30T11:52:48.697Z,95431.59
2018-09-30T11:55:17.151Z,95426.18
2018-09-30T11:57:46.310Z,95425.84
2018-09-30T12:00:17.150Z,95419.94
2018-09-30T12:02:48.788Z,95413.88
2018-09-30T12:05:18.753Z,95403.36
2018-09-30T12:07:47.222Z,95396.80
2018-09-30T12:10:17.238Z,95397.41
2018-09-30T12:12:45.709Z,95385.92
2018-09-30T12:15:18.027Z,95383.11
2018-09-30T12:17:47.605Z,95379.98
2018-09-30T12:20:16.235Z,95382.11
2018-09-30T12:22:45.343Z,95373.91
2018-09-30T12:25:14.129Z,95371.77
2018-09-30T12:27:43.628Z,95365.20
2018-09-30T12:30:12.674Z,95362.52
2018-09-30T12:32:42.545Z,95358.09
2018-09-30T12:35:10.977Z,95359.73
2018-09-30T12:37:39.451Z,95357.06
2018-09-30T12:40:07.939Z,95353.09
2018-09-30T12:42:36.414Z,95345.19
2018-09-30T12:45:05.346Z,95352.10
2018-09-30T12:47:34.376Z,95348.11
2018-09-30T12:50:02.839Z,95341.51
2018-09-30T12:52:31.537Z,95341.66
2018-09-30T12:55:00.042Z,95337.53
2018-09-30T12:57:28.546Z,95337.35
2018-09-30T12:59:57.029Z,95333.23
2018-09-30T13:02:26.392Z,95326.67
2018-09-30T13:04:55.162Z,95327.47
2018-09-30T13:07:23.672Z,95324.98
2018-09-30T13:09:52.153Z,95321.87
2018-09-30T13:12:20.652Z,95323.27
2018-09-30T13:14:49.826Z,95320.74
2018-09-30T13:17:18.782Z,95321.49
2018-09-30T13:19:47.256Z,95311.70
2018-09-30T13:22:16.859Z,95313.37
2018-09-30T13:24:45.390Z,95307.39
2018-09-30T13:27:13.946Z,95304.88
2018-09-30T13:29:42.428Z,95295.41
2018-09-30T13:32:10.874Z,95293.59
2018-09-30T13:34:39.460Z,95296.73
2018-09-30T13:37:10.389Z,95293.38
2018-09-30T13:39:38.903Z,95294.44
2018-09-30T13:42:08.037Z,95293.53
2018-09-30T13:44:36.471Z,95292.69
2018-09-30T13:47:05.038Z,95289.48
2018-09-30T13:49:33.519Z,95287.86
2018-09-30T13:52:03.302Z,95279.30
2018-09-30T13:54:40.368Z,95270.48
2018-09-30T13:57:08.880Z,95268.77
2018-09-30T13:59:37.416Z,95265.42
2018-09-30T14:02:07.305Z,95262.50
2018-09-30T14:04:35.746Z,95261.33
2018-09-30T14:07:04.276Z,95253.15
2018-09-30T14:09:32.882Z,95249.20
2018-09-30T14:12:04.272Z,95248.69
2018-09-30T14:14:32.998Z,95244.89
2018-09-30T14:17:01.489Z,95241.30
2018-09-30T14:19:30.181Z,95241.22
2018-09-30T14:21:58.829Z,95233.98
2018-09-30T14:24:27.542Z,95231.94
2018-09-30T14:26:56.229Z,95227.14
2018-09-30T14:29:24.676Z,95231.98
2018-09-30T14:31:53.182Z,95230.06
2018-09-30T14:34:21.720Z,95227.80
2018-09-30T14:36:50.119Z,95224.69
2018-09-30T14:39:18.606Z,95227.13
2018-09-30T14:41:47.047Z,95217.56
2018-09-30T14:44:39.315Z,95217.11
2018-09-30T14:47:07.806Z,95210.09
2018-09-30T14:49:36.353Z,95216.38
2018-09-30T14:52:04.963Z,95211.23
2018-09-30T14:54:33.943Z,95209.01
2018-09-30T14:57:02.440Z,95209.13
2018-09-30T14:59:37.287Z,95204.84
2018-09-30T15:02:05.990Z,95189.09
2018-09-30T15:04:35.345Z,95194.95
2018-09-30T15:07:03.823Z,95195.52
2018-09-30T15:09:32.301Z,95202.16
2018-09-30T15:12:00.896Z,95197.13
2018-09-30T15:14:29.305Z,95201.32
2018-09-30T15:16:57.877Z,95194.64
2018-09-30T15:19:26.374Z,95192.84
2018-09-30T15:21:54.869Z,95197.08
2018-09-30T15:24:23.385Z,95198.30
2018-09-30T15:26:51.876Z,95193.16
2018-09-30T15:29:20.358Z,95199.72
2018-09-30T15:31:48.837Z,95191.11
2018-09-30T15:34:17.298Z,95191.02
2018-09-30T15:36:45.741Z,95189.20
2018-09-30T15:39:14.276Z,95192.15
2018-09-30T15:41:42.836Z,95185.68
2018-09-30T15:44:12.050Z,95186.56
2018-09-30T15:46:40.737Z,95182.09
2018-09-30T15:49:09.677Z,95187.68
2018-09-30T15:51:38.405Z,95186.62
2018-09-30T15:54:07.106Z,95181.70
2018-09-30T15:56:35.538Z,95185.36
2018-09-30T15:59:07.222Z,95184.71
2018-09-30T16:01:35.638Z,95188.96
2018-09-30T16:04:04.157Z,95187.95
2018-09-30T16:06:32.627Z,95187.50
2018-09-30T16:09:02.136Z,95190.41
2018-09-30T16:11:30.662Z,95185.23
2018-09-30T16:13:59.129Z,95188.62
2018-09-30T16:16:27.590Z,95187.41
2018-09-30T16:18:56.087Z,95187.44
2018-09-30T16:21:24.560Z,95176.23
2018-09-30T16:23:53.019Z,95173.89
2018-09-30T16:26:22.345Z,95175.27
2018-09-30T16:28:50.790Z,95173.97
2018-09-30T16:31:20.027Z,95183.09
2018-09-30T16:33:48.439Z,95179.53
2018-09-30T16:36:16.897Z,95187.72
2018-09-30T16:38:45.360Z,95190.68
2018-09-30T16:41:13.895Z,95191.05
2018-09-30T16:43:42.275Z,95189.54
2018-09-30T16:46:10.810Z,95191.18
2018-09-30T16:48:39.220Z,95197.17
2018-09-30T16:51:07.736Z,95192.72
2018-09-30T16:53:36.137Z,95192.80
2018-09-30T16:56:04.617Z,95192.59
2018-09-30T16:58:33.071Z,95198.98
2018-09-30T17:01:01.674Z,95203.38
2018-09-30T17:03:30.691Z,95200.22
2018-09-30T17:05:59.117Z,95208.98
2018-09-30T17:08:27.519Z,95205.27
2018-09-30T17:10:56.530Z,95208.78
2018-09-30T17:13:24.998Z,95211.00
2018-09-30T17:15:53.462Z,95209.73
2018-09-30T17:18:23.205Z,95211.23
2018-09-30T17:20:51.663Z,95213.52
2018-09-30T17:23:26.178Z,95208.45
2018-09-30T17:25:55.142Z,95205.34
2018-09-30T17:28:23.558Z,95206.70
2018-09-30T17:30:52.208Z,95202.75
2018-09-30T17:33:20.777Z,95211.69
2018-09-30T17:35:49.671Z,95212.39
2018-09-30T17:38:18.399Z,95211.08
2018-09-30T17:40:47.006Z,95214.23
2018-09-30T17:43:15.513Z,95217.72
2018-09-30T17:45:43.950Z,95214.94
2018-09-30T17:48:12.648Z,95215.12
2018-09-30T17:50:41.162Z,95217.13
2018-09-30T17:53:09.733Z,95210.31
2018-09-30T17:55:38.186Z,95205.56
2018-09-30T17:58:13.255Z,95210.70
2018-09-30T18:00:49.184Z,95206.77
2018-09-30T18:03:19.538Z,95208.41
2018-09-30T18:05:49.962Z,95204.48
2018-09-30T18:08:18.493Z,95205.62
2018-09-30T18:10:47.003Z,95207.94
2018-09-30T18:13:15.503Z,95205.98
2018-09-30T18:15:44.124Z,95202.88
2018-09-30T18:18:12.585Z,95200.27
2018-09-30T18:20:41.247Z,95206.34
2018-09-30T18:23:09.690Z,95200.31
2018-09-30T18:25:38.269Z,95201.14
2018-09-30T18:28:06.758Z,95202.31
2018-09-30T18:30:35.465Z,95205.09
2018-09-30T18:33:04.453Z,95200.66
2018-09-30T18:35:33.004Z,95188.90
2018-09-30T18:38:05.639Z,95192.19
2018-09-30T18:40:44.212Z,95194.64
2018-09-30T18:43:13.257Z,95192.85
2018-09-30T18:45:42.147Z,95194.67
2018-09-30T18:48:12.603Z,95191.70
2018-09-30T18:50:42.087Z,95188.11
2018-09-30T18:53:10.534Z,95184.84
2018-09-30T18:55:39.036Z,95182.05
2018-09-30T18:58:07.474Z,95186.81
2018-09-30T19:00:35.953Z,95183.05
2018-09-30T19:03:04.418Z,95183.23
2018-09-30T19:05:32.987Z,95178.16
2018-09-30T19:08:01.918Z,95181.63
2018-09-30T19:10:30.406Z,95180.80
2018-09-30T19:12:58.852Z,95175.03
2018-09-30T19:15:33.611Z,95177.34
2018-09-30T19:21:15.056Z,95169.78
2018-09-30T20:02:39.692Z,95130.50
2018-09-30T20:05:09.326Z,95126.25
2018-09-30T20:07:38.079Z,95127.88
2018-09-30T22:36:51.890Z,94987.23
2018-09-30T22:39:20.445Z,94989.85
2018-09-30T22:41:51.328Z,94979.06
2018-09-30T22:44:20.203Z,94975.59
2018-09-30T22:46:48.785Z,94976.59
2018-09-30T22:49:17.288Z,94970.06
2018-09-30T22:51:45.795Z,94971.67
2018-09-30T22:54:14.275Z,94976.43
2018-09-30T22:56:42.852Z,94974.12
2018-09-30T22:59:11.503Z,94972.98
2018-09-30T23:01:40.016Z,94969.40
2018-09-30T23:04:09.599Z,94975.30
2018-09-30T23:06:38.163Z,94967.27
2018-09-30T23:09:08.790Z,94972.34
2018-09-30T23:11:37.603Z,94970.03
2018-09-30T23:14:07.106Z,94977.23
2018-09-30T23:16:37.125Z,94981.28
2018-09-30T23:19:05.707Z,94977.36
2018-09-30T23:21:34.173Z,94976.70
2018-09-30T23:24:03.047Z,94974.92
2018-09-30T23:26:32.135Z,94976.91
2018-09-30T23:29:02.063Z,94963.83
2018-09-30T23:31:31.530Z,94965.31
2018-09-30T23:34:10.096Z,94955.50
2018-09-30T23:36:43.676Z,94961.21
2018-09-30T23:39:15.323Z,94960.90
2018-09-30T23:41:49.864Z,94960.55
2018-09-30T23:44:19.548Z,94961.55
2018-09-30T23:47:05.765Z,94962.52
2018-09-30T23:56:59.063Z,94955.81
2018-09-30T23:59:30.467Z,94947.79
